sensor_id;sensor_type;location;lat;lon;timestamp;pressure;altitude;pressure_sealevel;temperature;humidity
71239;BME280;61342;51.442;7.370;2023-05-19T00:00:06;101013.16;;;12.46;69.49
71239;BME280;61342;51.442;7.370;2023-05-19T00:01:07;101008.41;;;12.43;69.71
71239;BME280;61342;51.442;7.370;2023-05-19T00:02:08;101011.06;;;12.41;69.76
71239;BME280;61342;51.442;7.370;2023-05-19T00:03:09;101022.06;;;12.37;69.48
71239;BME280;61342;51.442;7.370;2023-05-19T00:04:12;101007.38;;;12.30;70.09
71239;BME280;61342;51.442;7.370;2023-05-19T00:05:17;101014.44;;;12.29;69.98
71239;BME280;61342;51.442;7.370;2023-05-19T00:06:23;100996.38;;;12.23;70.15
71239;BME280;61342;51.442;7.370;2023-05-19T00:07:29;100984.03;;;12.17;70.43
71239;BME280;61342;51.442;7.370;2023-05-19T00:08:30;101010.78;;;12.28;70.58
71239;BME280;61342;51.442;7.370;2023-05-19T00:09:31;100993.22;;;12.15;70.42
71239;BME280;61342;51.442;7.370;2023-05-19T00:10:32;100996.63;;;12.14;70.73
71239;BME280;61342;51.442;7.370;2023-05-19T00:11:33;101001.59;;;12.19;70.67
71239;BME280;61342;51.442;7.370;2023-05-19T00:12:37;100998.97;;;12.21;71.06
71239;BME280;61342;51.442;7.370;2023-05-19T00:13:38;101003.19;;;12.25;71.16
71239;BME280;61342;51.442;7.370;2023-05-19T00:14:38;101006.06;;;12.25;71.10
71239;BME280;61342;51.442;7.370;2023-05-19T00:15:39;100995.06;;;12.24;71.07
71239;BME280;61342;51.442;7.370;2023-05-19T00:16:40;101000.84;;;12.24;71.28
71239;BME280;61342;51.442;7.370;2023-05-19T00:17:41;101006.84;;;12.26;71.22
71239;BME280;61342;51.442;7.370;2023-05-19T00:18:41;101007.63;;;12.26;71.42
71239;BME280;61342;51.442;7.370;2023-05-19T00:19:42;101011.31;;;12.27;71.34
71239;BME280;61342;51.442;7.370;2023-05-19T00:20:44;100998.19;;;12.26;71.37
71239;BME280;61342;51.442;7.370;2023-05-19T00:21:44;101000.03;;;12.23;71.55
71239;BME280;61342;51.442;7.370;2023-05-19T00:22:45;101005.25;;;12.25;71.33
71239;BME280;61342;51.442;7.370;2023-05-19T00:23:45;101008.94;;;12.25;71.68
71239;BME280;61342;51.442;7.370;2023-05-19T00:24:46;101008.94;;;12.25;71.46
71239;BME280;61342;51.442;7.370;2023-05-19T00:25:46;101008.16;;;12.25;71.58
71239;BME280;61342;51.442;7.370;2023-05-19T00:26:46;101004.72;;;12.26;71.72
71239;BME280;61342;51.442;7.370;2023-05-19T00:27:47;101000.31;;;12.25;71.72
71239;BME280;61342;51.442;7.370;2023-05-19T00:28:48;101003.19;;;12.25;71.79
71239;BME280;61342;51.442;7.370;2023-05-19T00:29:48;101014.72;;;12.25;72.21
71239;BME280;61342;51.442;7.370;2023-05-19T00:30:49;101005.53;;;12.27;71.88
71239;BME280;61342;51.442;7.370;2023-05-19T00:31:50;101004.22;;;12.22;71.88
71239;BME280;61342;51.442;7.370;2023-05-19T00:32:50;101008.94;;;12.25;72.10
71239;BME280;61342;51.442;7.370;2023-05-19T00:33:51;101003.72;;;12.24;72.24
71239;BME280;61342;51.442;7.370;2023-05-19T00:34:51;100997.41;;;12.25;72.40
71239;BME280;61342;51.442;7.370;2023-05-19T00:35:51;101001.34;;;12.28;72.31
71239;BME280;61342;51.442;7.370;2023-05-19T00:36:52;100999.50;;;12.25;72.20
71239;BME280;61342;51.442;7.370;2023-05-19T00:37:52;101008.69;;;12.40;72.08
71239;BME280;61342;51.442;7.370;2023-05-19T00:38:53;101000.81;;;12.46;71.82
71239;BME280;61342;51.442;7.370;2023-05-19T00:39:53;101008.44;;;12.54;71.65
71239;BME280;61342;51.442;7.370;2023-05-19T00:40:54;101006.06;;;12.64;70.97
71239;BME280;61342;51.442;7.370;2023-05-19T00:41:54;101011.28;;;12.70;70.76
71239;BME280;61342;51.442;7.370;2023-05-19T00:42:55;101009.22;;;12.71;70.66
71239;BME280;61342;51.442;7.370;2023-05-19T00:43:56;101006.03;;;12.74;70.62
71239;BME280;61342;51.442;7.370;2023-05-19T00:44:56;101012.59;;;12.75;70.80
71239;BME280;61342;51.442;7.370;2023-05-19T00:45:57;100999.22;;;12.72;70.62
71239;BME280;61342;51.442;7.370;2023-05-19T00:46:57;101018.63;;;12.71;70.52
71239;BME280;61342;51.442;7.370;2023-05-19T00:47:58;101009.47;;;12.67;70.91
71239;BME280;61342;51.442;7.370;2023-05-19T00:48:58;101003.69;;;12.62;70.95
71239;BME280;61342;51.442;7.370;2023-05-19T00:49:59;101003.97;;;12.59;70.98
71239;BME280;61342;51.442;7.370;2023-05-19T00:50:59;101010.78;;;12.56;71.32
71239;BME280;61342;51.442;7.370;2023-05-19T00:52:05;101006.31;;;12.49;71.19
71239;BME280;61342;51.442;7.370;2023-05-19T00:53:06;101003.44;;;12.44;71.39
71239;BME280;61342;51.442;7.370;2023-05-19T00:54:07;101008.16;;;12.41;71.70
71239;BME280;61342;51.442;7.370;2023-05-19T00:55:08;101004.75;;;12.32;71.95
71239;BME280;61342;51.442;7.370;2023-05-19T00:56:09;101002.13;;;12.28;71.97
71239;BME280;61342;51.442;7.370;2023-05-19T00:57:09;101008.44;;;12.27;71.86
71239;BME280;61342;51.442;7.370;2023-05-19T00:58:13;101002.91;;;12.18;72.25
71239;BME280;61342;51.442;7.370;2023-05-19T00:59:15;101001.31;;;12.17;72.48
71239;BME280;61342;51.442;7.370;2023-05-19T01:00:15;101000.56;;;12.11;72.69
71239;BME280;61342;51.442;7.370;2023-05-19T01:01:16;101010.25;;;12.08;72.45
71239;BME280;61342;51.442;7.370;2023-05-19T01:02:16;101011.03;;;12.03;72.80
71239;BME280;61342;51.442;7.370;2023-05-19T01:03:17;101006.03;;;11.98;72.81
71239;BME280;61342;51.442;7.370;2023-05-19T01:04:20;101012.84;;;11.95;73.15
71239;BME280;61342;51.442;7.370;2023-05-19T01:05:21;101012.31;;;11.91;73.38
71239;BME280;61342;51.442;7.370;2023-05-19T01:06:21;101011.50;;;11.85;73.62
71239;BME280;61342;51.442;7.370;2023-05-19T01:07:22;101013.59;;;11.85;73.63
71239;BME280;61342;51.442;7.370;2023-05-19T01:08:22;101007.56;;;11.77;73.76
71239;BME280;61342;51.442;7.370;2023-05-19T01:09:23;101007.56;;;11.77;74.03
71239;BME280;61342;51.442;7.370;2023-05-19T01:10:23;101007.81;;;11.74;73.99
71239;BME280;61342;51.442;7.370;2023-05-19T01:11:24;101007.25;;;11.70;74.00
71239;BME280;61342;51.442;7.370;2023-05-19T01:12:24;101009.91;;;11.68;74.34
71239;BME280;61342;51.442;7.370;2023-05-19T01:13:29;101008.31;;;11.61;74.44
71239;BME280;61342;51.442;7.370;2023-05-19T01:14:30;101012.22;;;11.58;74.42
71239;BME280;61342;51.442;7.370;2023-05-19T01:15:42;101010.88;;;11.54;74.62
71239;BME280;61342;51.442;7.370;2023-05-19T01:18:11;101002.72;;;11.42;74.74
71239;BME280;61342;51.442;7.370;2023-05-19T01:19:40;101011.06;;;11.40;75.09
71239;BME280;61342;51.442;7.370;2023-05-19T01:20:51;101010.53;;;11.36;75.15
71239;BME280;61342;51.442;7.370;2023-05-19T01:25:32;101006.28;;;11.20;75.80
71239;BME280;61342;51.442;7.370;2023-05-19T01:29:41;101002.53;;;11.03;76.11
71239;BME280;61342;51.442;7.370;2023-05-19T01:30:54;101004.13;;;11.04;76.21
71239;BME280;61342;51.442;7.370;2023-05-19T01:31:58;101005.41;;;11.03;76.32
71239;BME280;61342;51.442;7.370;2023-05-19T01:33:03;101003.81;;;11.02;76.49
71239;BME280;61342;51.442;7.370;2023-05-19T01:34:05;101000.69;;;11.00;76.80
71239;BME280;61342;51.442;7.370;2023-05-19T01:35:08;101000.63;;;10.95;76.72
71239;BME280;61342;51.442;7.370;2023-05-19T01:36:09;100996.69;;;10.92;77.03
71239;BME280;61342;51.442;7.370;2023-05-19T01:37:12;101004.03;;;10.93;77.26
71239;BME280;61342;51.442;7.370;2023-05-19T01:38:15;101003.25;;;10.93;77.38
71239;BME280;61342;51.442;7.370;2023-05-19T01:39:17;100998.53;;;10.90;77.53
71239;BME280;61342;51.442;7.370;2023-05-19T01:40:18;100994.88;;;10.90;77.49
71239;BME280;61342;51.442;7.370;2023-05-19T01:41:21;101007.94;;;10.91;77.42
71239;BME280;61342;51.442;7.370;2023-05-19T01:42:22;101002.44;;;10.87;77.65
71239;BME280;61342;51.442;7.370;2023-05-19T01:43:24;101011.06;;;10.87;77.83
71239;BME280;61342;51.442;7.370;2023-05-19T01:44:25;101006.63;;;10.86;77.71
71239;BME280;61342;51.442;7.370;2023-05-19T01:45:27;101001.09;;;10.83;78.12
71239;BME280;61342;51.442;7.370;2023-05-19T01:46:28;100998.75;;;10.81;78.24
71239;BME280;61342;51.442;7.370;2023-05-19T01:47:28;101005.56;;;10.84;78.04
71239;BME280;61342;51.442;7.370;2023-05-19T01:48:29;100989.81;;;10.79;78.39
71239;BME280;61342;51.442;7.370;2023-05-19T01:49:31;101008.16;;;10.82;78.26
71239;BME280;61342;51.442;7.370;2023-05-19T01:50:32;100998.75;;;10.81;78.46
71239;BME280;61342;51.442;7.370;2023-05-19T01:51:33;101009.44;;;10.81;78.37
71239;BME280;61342;51.442;7.370;2023-05-19T01:52:34;101006.31;;;10.79;78.72
71239;BME280;61342;51.442;7.370;2023-05-19T01:53:35;101003.16;;;10.77;78.52
71239;BME280;61342;51.442;7.370;2023-05-19T01:54:35;101002.06;;;10.74;78.80
71239;BME280;61342;51.442;7.370;2023-05-19T01:55:45;101000.78;;;10.75;78.93
71239;BME280;61342;51.442;7.370;2023-05-19T01:58:26;101005.97;;;10.71;78.96
71239;BME280;61342;51.442;7.370;2023-05-19T02:01:51;101005.63;;;10.58;79.07
71239;BME280;61342;51.442;7.370;2023-05-19T02:04:19;101011.63;;;10.55;79.18
71239;BME280;61342;51.442;7.370;2023-05-19T02:07:11;101012.38;;;10.50;79.44
71239;BME280;61342;51.442;7.370;2023-05-19T02:10:52;101023.09;;;10.49;79.42
71239;BME280;61342;51.442;7.370;2023-05-19T02:12:02;101013.63;;;10.43;79.83
71239;BME280;61342;51.442;7.370;2023-05-19T02:13:05;101023.56;;;10.48;79.97
71239;BME280;61342;51.442;7.370;2023-05-19T02:14:19;101019.38;;;10.43;80.13
71239;BME280;61342;51.442;7.370;2023-05-19T02:15:23;101018.34;;;10.46;80.16
71239;BME280;61342;51.442;7.370;2023-05-19T02:16:27;101029.84;;;10.46;80.27
71239;BME280;61342;51.442;7.370;2023-05-19T02:17:29;101022.53;;;10.45;80.59
71239;BME280;61342;51.442;7.370;2023-05-19T02:18:35;101021.47;;;10.43;80.58
71239;BME280;61342;51.442;7.370;2023-05-19T02:19:37;101015.72;;;10.43;80.48
71239;BME280;61342;51.442;7.370;2023-05-19T02:20:38;101022.25;;;10.43;80.79
71239;BME280;61342;51.442;7.370;2023-05-19T02:21:39;101019.59;;;10.40;80.70
71239;BME280;61342;51.442;7.370;2023-05-19T02:22:39;101021.97;;;10.41;80.91
71239;BME280;61342;51.442;7.370;2023-05-19T02:23:40;101020.41;;;10.40;80.97
71239;BME280;61342;51.442;7.370;2023-05-19T02:24:43;101011.75;;;10.35;81.21
71239;BME280;61342;51.442;7.370;2023-05-19T02:25:45;101018.81;;;10.39;81.32
71239;BME280;61342;51.442;7.370;2023-05-19T02:26:45;101016.69;;;10.34;81.49
71239;BME280;61342;51.442;7.370;2023-05-19T02:27:47;101016.16;;;10.36;81.16
71239;BME280;61342;51.442;7.370;2023-05-19T02:28:48;101031.34;;;10.36;81.53
71239;BME280;61342;51.442;7.370;2023-05-19T02:30:35;101028.97;;;10.35;81.38
71239;BME280;61342;51.442;7.370;2023-05-19T02:31:49;101019.50;;;10.29;81.55
71239;BME280;61342;51.442;7.370;2023-05-19T02:35:04;101024.91;;;10.22;81.72
71239;BME280;61342;51.442;7.370;2023-05-19T02:38:46;101006.22;;;10.01;81.61
71239;BME280;61342;51.442;7.370;2023-05-19T02:41:29;101010.94;;;10.04;81.91
71239;BME280;61342;51.442;7.370;2023-05-19T02:43:06;100999.41;;;9.98;82.04
71239;BME280;61342;51.442;7.370;2023-05-19T02:44:31;100997.72;;;9.92;82.20
71239;BME280;61342;51.442;7.370;2023-05-19T02:52:20;101008.66;;;9.88;82.46
71239;BME280;61342;51.442;7.370;2023-05-19T02:53:21;100997.59;;;9.81;82.59
71239;BME280;61342;51.442;7.370;2023-05-19T02:54:21;101006.78;;;9.85;82.59
71239;BME280;61342;51.442;7.370;2023-05-19T02:55:21;101018.09;;;9.94;82.91
71239;BME280;61342;51.442;7.370;2023-05-19T02:56:22;101020.97;;;9.94;82.96
71239;BME280;61342;51.442;7.370;2023-05-19T02:57:22;101018.63;;;9.92;82.94
71239;BME280;61342;51.442;7.370;2023-05-19T02:58:23;101016.25;;;9.91;83.20
71239;BME280;61342;51.442;7.370;2023-05-19T02:59:24;101022.25;;;9.93;83.35
71239;BME280;61342;51.442;7.370;2023-05-19T03:00:24;101009.94;;;9.87;83.50
71239;BME280;61342;51.442;7.370;2023-05-19T03:01:25;101000.25;;;9.84;83.71
71239;BME280;61342;51.442;7.370;2023-05-19T03:02:25;101014.16;;;9.91;83.58
71239;BME280;61342;51.442;7.370;2023-05-19T03:03:25;101013.09;;;9.89;83.71
71239;BME280;61342;51.442;7.370;2023-05-19T03:04:27;101006.06;;;9.90;83.91
71239;BME280;61342;51.442;7.370;2023-05-19T03:05:28;101011.03;;;9.89;83.87
71239;BME280;61342;51.442;7.370;2023-05-19T03:06:31;101002.63;;;9.86;84.14
71239;BME280;61342;51.442;7.370;2023-05-19T03:07:32;100996.06;;;9.80;84.20
71239;BME280;61342;51.442;7.370;2023-05-19T03:08:33;100997.34;;;9.79;84.09
71239;BME280;61342;51.442;7.370;2023-05-19T03:09:37;100999.91;;;9.77;84.08
71239;BME280;61342;51.442;7.370;2023-05-19T03:10:38;100991.81;;;9.75;84.39
71239;BME280;61342;51.442;7.370;2023-05-19T03:11:38;101003.63;;;9.83;84.57
71239;BME280;61342;51.442;7.370;2023-05-19T03:12:38;101005.44;;;9.80;84.59
71239;BME280;61342;51.442;7.370;2023-05-19T03:13:39;101003.63;;;9.83;84.52
71239;BME280;61342;51.442;7.370;2023-05-19T03:14:40;101002.06;;;9.82;84.81
71239;BME280;61342;51.442;7.370;2023-05-19T03:15:41;101000.25;;;9.84;84.67
71239;BME280;61342;51.442;7.370;2023-05-19T03:16:42;101003.91;;;9.85;84.57
71239;BME280;61342;51.442;7.370;2023-05-19T03:17:42;100999.75;;;9.86;84.77
71239;BME280;61342;51.442;7.370;2023-05-19T03:18:42;101002.09;;;9.87;84.76
71239;BME280;61342;51.442;7.370;2023-05-19T03:19:43;101001.59;;;9.89;84.86
71239;BME280;61342;51.442;7.370;2023-05-19T03:20:43;101004.47;;;9.89;84.61
71239;BME280;61342;51.442;7.370;2023-05-19T03:21:44;101001.34;;;9.87;84.55
71239;BME280;61342;51.442;7.370;2023-05-19T03:22:44;101003.19;;;9.90;84.52
71239;BME280;61342;51.442;7.370;2023-05-19T03:23:44;101007.91;;;9.93;84.48
71239;BME280;61342;51.442;7.370;2023-05-19T03:24:46;101009.00;;;9.95;84.45
71239;BME280;61342;51.442;7.370;2023-05-19T03:25:48;101002.78;;;9.97;84.54
71239;BME280;61342;51.442;7.370;2023-05-19T03:26:50;101003.56;;;9.97;84.63
71239;BME280;61342;51.442;7.370;2023-05-19T03:27:50;100996.28;;;10.02;84.47
71239;BME280;61342;51.442;7.370;2023-05-19T03:28:51;101001.25;;;10.01;84.38
71239;BME280;61342;51.442;7.370;2023-05-19T03:29:51;101003.59;;;10.03;84.27
71239;BME280;61342;51.442;7.370;2023-05-19T03:30:52;101011.19;;;10.06;84.37
71239;BME280;61342;51.442;7.370;2023-05-19T03:31:53;101014.38;;;10.08;84.43
71239;BME280;61342;51.442;7.370;2023-05-19T03:32:53;101017.50;;;10.10;84.61
71239;BME280;61342;51.442;7.370;2023-05-19T03:33:54;101010.97;;;10.09;84.38
71239;BME280;61342;51.442;7.370;2023-05-19T03:34:54;101016.50;;;10.13;84.34
71239;BME280;61342;51.442;7.370;2023-05-19T03:35:55;101017.06;;;10.17;84.22
71239;BME280;61342;51.442;7.370;2023-05-19T03:36:56;101015.75;;;10.18;84.36
71239;BME280;61342;51.442;7.370;2023-05-19T03:37:56;101021.59;;;10.29;84.03
71239;BME280;61342;51.442;7.370;2023-05-19T03:38:57;101014.88;;;10.37;83.93
71239;BME280;61342;51.442;7.370;2023-05-19T03:39:58;101010.00;;;10.48;83.47
71239;BME280;61342;51.442;7.370;2023-05-19T03:40:59;101014.03;;;10.62;82.96
71239;BME280;61342;51.442;7.370;2023-05-19T03:41:59;101016.44;;;10.74;82.55
71239;BME280;61342;51.442;7.370;2023-05-19T03:43:00;101013.38;;;10.83;82.27
71239;BME280;61342;51.442;7.370;2023-05-19T03:44:00;101021.25;;;10.88;81.70
71239;BME280;61342;51.442;7.370;2023-05-19T03:45:01;101015.50;;;10.88;81.50
71239;BME280;61342;51.442;7.370;2023-05-19T03:46:02;101014.47;;;10.91;81.35
71239;BME280;61342;51.442;7.370;2023-05-19T03:47:03;101014.47;;;10.91;81.16
71239;BME280;61342;51.442;7.370;2023-05-19T03:48:03;101021.56;;;10.90;80.78
71239;BME280;61342;51.442;7.370;2023-05-19T03:49:04;101003.97;;;10.83;81.29
71239;BME280;61342;51.442;7.370;2023-05-19T03:50:05;101013.38;;;10.83;81.15
71239;BME280;61342;51.442;7.370;2023-05-19T03:51:05;101011.53;;;10.80;81.41
71239;BME280;61342;51.442;7.370;2023-05-19T03:52:06;101015.97;;;10.76;81.35
71239;BME280;61342;51.442;7.370;2023-05-19T03:53:06;101016.19;;;10.72;81.59
71239;BME280;61342;51.442;7.370;2023-05-19T03:54:07;101012.25;;;10.70;81.71
71239;BME280;61342;51.442;7.370;2023-05-19T03:55:07;101013.81;;;10.65;81.72
71239;BME280;61342;51.442;7.370;2023-05-19T03:56:08;101013.25;;;10.61;81.91
71239;BME280;61342;51.442;7.370;2023-05-19T03:57:13;101012.41;;;10.55;81.83
71239;BME280;61342;51.442;7.370;2023-05-19T03:58:14;101017.91;;;10.53;82.13
71239;BME280;61342;51.442;7.370;2023-05-19T03:59:20;101017.81;;;10.48;82.10
71239;BME280;61342;51.442;7.370;2023-05-19T04:00:34;101016.50;;;10.43;82.42
71239;BME280;61342;51.442;7.370;2023-05-19T04:01:45;100990.50;;;10.27;82.31
71239;BME280;61342;51.442;7.370;2023-05-19T04:03:11;101001.72;;;10.25;82.60
71239;BME280;61342;51.442;7.370;2023-05-19T04:04:17;100986.03;;;10.21;82.78
71239;BME280;61342;51.442;7.370;2023-05-19T04:05:44;101007.69;;;10.22;82.79
71239;BME280;61342;51.442;7.370;2023-05-19T04:07:10;101010.28;;;10.20;82.79
71239;BME280;61342;51.442;7.370;2023-05-19T04:08:21;101001.06;;;10.10;83.24
71239;BME280;61342;51.442;7.370;2023-05-19T04:09:44;101023.81;;;10.14;83.45
71239;BME280;61342;51.442;7.370;2023-05-19T04:10:47;101001.19;;;9.96;83.52
71239;BME280;61342;51.442;7.370;2023-05-19T04:12:09;101000.88;;;9.94;83.80
71239;BME280;61342;51.442;7.370;2023-05-19T04:13:40;101021.06;;;9.99;83.83
71239;BME280;61342;51.442;7.370;2023-05-19T04:14:45;101004.00;;;9.90;83.86
71239;BME280;61342;51.442;7.370;2023-05-19T04:15:49;100997.91;;;9.83;84.03
71239;BME280;61342;51.442;7.370;2023-05-19T04:16:50;101006.56;;;9.88;84.15
71239;BME280;61342;51.442;7.370;2023-05-19T04:17:51;101019.69;;;9.95;84.34
71239;BME280;61342;51.442;7.370;2023-05-19T04:18:51;101001.03;;;9.85;84.58
71239;BME280;61342;51.442;7.370;2023-05-19T04:19:52;101015.69;;;9.87;84.65
71239;BME280;61342;51.442;7.370;2023-05-19T04:20:53;101007.28;;;9.83;84.33
71239;BME280;61342;51.442;7.370;2023-05-19T04:21:53;101021.69;;;9.89;84.82
71239;BME280;61342;51.442;7.370;2023-05-19T04:22:54;101014.09;;;9.86;84.95
71239;BME280;61342;51.442;7.370;2023-05-19T04:23:57;101022.72;;;9.86;85.10
71239;BME280;61342;51.442;7.370;2023-05-19T04:25:12;101022.16;;;9.82;85.12
71239;BME280;61342;51.442;7.370;2023-05-19T04:26:13;101002.22;;;9.73;85.34
71239;BME280;61342;51.442;7.370;2023-05-19T04:27:15;101011.69;;;9.79;85.39
71239;BME280;61342;51.442;7.370;2023-05-19T04:28:17;101004.09;;;9.76;85.61
71239;BME280;61342;51.442;7.370;2023-05-19T04:29:25;101005.66;;;9.77;85.93
71239;BME280;61342;51.442;7.370;2023-05-19T04:30:28;101015.13;;;9.83;85.38
71239;BME280;61342;51.442;7.370;2023-05-19T04:31:43;101020.56;;;9.81;85.81
71239;BME280;61342;51.442;7.370;2023-05-19T04:32:49;101002.22;;;9.73;85.80
71239;BME280;61342;51.442;7.370;2023-05-19T04:33:50;101009.03;;;9.75;85.83
71239;BME280;61342;51.442;7.370;2023-05-19T04:34:52;101014.50;;;9.74;86.14
71239;BME280;61342;51.442;7.370;2023-05-19T04:35:55;101021.09;;;9.79;86.17
71239;BME280;61342;51.442;7.370;2023-05-19T04:37:23;101006.69;;;9.74;86.17
71239;BME280;61342;51.442;7.370;2023-05-19T04:38:25;101008.47;;;9.72;86.60
71239;BME280;61342;51.442;7.370;2023-05-19T04:39:29;101008.25;;;9.75;86.17
71239;BME280;61342;51.442;7.370;2023-05-19T04:40:46;100998.56;;;9.73;86.20
71239;BME280;61342;51.442;7.370;2023-05-19T04:41:52;101017.69;;;9.81;86.65
71239;BME280;61342;51.442;7.370;2023-05-19T04:43:05;101007.47;;;9.75;86.77
71239;BME280;61342;51.442;7.370;2023-05-19T04:44:14;101003.28;;;9.75;86.39
71239;BME280;61342;51.442;7.370;2023-05-19T04:45:20;101007.28;;;9.83;86.44
71239;BME280;61342;51.442;7.370;2023-05-19T04:46:25;101002.22;;;9.73;86.51
71239;BME280;61342;51.442;7.370;2023-05-19T04:47:29;101005.91;;;9.74;86.69
71239;BME280;61342;51.442;7.370;2023-05-19T04:48:29;100997.78;;;9.72;86.66
71239;BME280;61342;51.442;7.370;2023-05-19T04:49:30;101014.34;;;9.82;86.62
71239;BME280;61342;51.442;7.370;2023-05-19T04:51:49;101003.75;;;9.69;86.69
71239;BME280;61342;51.442;7.370;2023-05-19T04:52:53;101027.13;;;9.81;86.73
71239;BME280;61342;51.442;7.370;2023-05-19T04:54:07;101031.06;;;9.84;86.82
71239;BME280;61342;51.442;7.370;2023-05-19T04:55:10;101015.84;;;9.78;86.57
71239;BME280;61342;51.442;7.370;2023-05-19T04:56:10;101035.50;;;9.85;86.96
71239;BME280;61342;51.442;7.370;2023-05-19T04:57:40;101029.75;;;9.85;86.82
71239;BME280;61342;51.442;7.370;2023-05-19T04:58:50;101012.41;;;9.74;86.88
71239;BME280;61342;51.442;7.370;2023-05-19T05:00:17;101027.38;;;9.83;86.92
71239;BME280;61342;51.442;7.370;2023-05-19T05:01:29;101011.63;;;9.74;86.98
71239;BME280;61342;51.442;7.370;2023-05-19T05:02:35;101017.13;;;9.77;87.07
71239;BME280;61342;51.442;7.370;2023-05-19T05:03:38;101005.59;;;9.72;87.15
71239;BME280;61342;51.442;7.370;2023-05-19T05:05:09;101028.41;;;9.80;86.93
71239;BME280;61342;51.442;7.370;2023-05-19T05:06:11;101023.94;;;9.79;87.19
71239;BME280;61342;51.442;7.370;2023-05-19T05:07:12;101012.19;;;9.77;87.16
71239;BME280;61342;51.442;7.370;2023-05-19T05:08:21;101009.28;;;9.72;87.17
71239;BME280;61342;51.442;7.370;2023-05-19T05:10:02;101036.31;;;9.85;87.35
71239;BME280;61342;51.442;7.370;2023-05-19T05:11:22;101019.53;;;9.78;87.25
71239;BME280;61342;51.442;7.370;2023-05-19T05:12:23;101031.91;;;9.90;87.28
71239;BME280;61342;51.442;7.370;2023-05-19T05:13:36;101040.50;;;9.90;87.29
71239;BME280;61342;51.442;7.370;2023-05-19T05:17:21;101016.38;;;9.76;87.03
71239;BME280;61342;51.442;7.370;2023-05-19T05:18:21;101020.88;;;9.83;87.12
71239;BME280;61342;51.442;7.370;2023-05-19T05:19:29;101024.56;;;9.89;87.18
71239;BME280;61342;51.442;7.370;2023-05-19T05:20:47;101036.13;;;9.94;86.95
71239;BME280;61342;51.442;7.370;2023-05-19T05:22:06;101018.91;;;9.94;86.98
71239;BME280;61342;51.442;7.370;2023-05-19T05:23:12;101041.50;;;10.07;86.86
71239;BME280;61342;51.442;7.370;2023-05-19T05:24:22;101038.13;;;10.08;87.08
71239;BME280;61342;51.442;7.370;2023-05-19T05:25:32;101021.06;;;9.99;86.93
71239;BME280;61342;51.442;7.370;2023-05-19T05:26:38;101024.28;;;10.07;86.65
71239;BME280;61342;51.442;7.370;2023-05-19T05:27:41;101029.00;;;10.10;86.74
71239;BME280;61342;51.442;7.370;2023-05-19T05:28:44;101024.84;;;10.11;86.60
71239;BME280;61342;51.442;7.370;2023-05-19T05:29:56;101017.50;;;10.10;86.42
71239;BME280;61342;51.442;7.370;2023-05-19T05:31:01;101028.81;;;10.19;86.59
71239;BME280;61342;51.442;7.370;2023-05-19T05:32:08;101030.97;;;10.24;86.34
71239;BME280;61342;51.442;7.370;2023-05-19T05:33:09;101039.13;;;10.31;86.36
71239;BME280;61342;51.442;7.370;2023-05-19T05:34:18;101018.97;;;10.25;86.15
71239;BME280;61342;51.442;7.370;2023-05-19T05:35:38;101015.56;;;10.27;86.13
71239;BME280;61342;51.442;7.370;2023-05-19T05:36:44;101004.06;;;10.27;86.24
71239;BME280;61342;51.442;7.370;2023-05-19T05:37:53;101036.91;;;10.45;86.46
71239;BME280;61342;51.442;7.370;2023-05-19T05:39:24;101032.75;;;10.52;85.80
71239;BME280;61342;51.442;7.370;2023-05-19T05:40:32;101014.81;;;10.62;85.55
71239;BME280;61342;51.442;7.370;2023-05-19T05:41:33;101020.91;;;10.75;85.31
71239;BME280;61342;51.442;7.370;2023-05-19T05:42:40;101037.03;;;10.98;84.62
71239;BME280;61342;51.442;7.370;2023-05-19T05:45:12;101032.69;;;11.19;83.60
71239;BME280;61342;51.442;7.370;2023-05-19T05:46:13;101015.19;;;11.22;83.16
71239;BME280;61342;51.442;7.370;2023-05-19T05:47:19;101023.03;;;11.22;83.08
71239;BME280;61342;51.442;7.370;2023-05-19T05:48:20;101024.13;;;11.30;82.90
71239;BME280;61342;51.442;7.370;2023-05-19T05:49:21;101029.13;;;11.35;82.63
71239;BME280;61342;51.442;7.370;2023-05-19T05:50:21;101017.56;;;11.29;82.68
71239;BME280;61342;51.442;7.370;2023-05-19T05:51:22;101017.84;;;11.31;82.40
71239;BME280;61342;51.442;7.370;2023-05-19T05:52:28;101028.06;;;11.38;82.46
71239;BME280;61342;51.442;7.370;2023-05-19T05:53:30;101023.91;;;11.39;82.27
71239;BME280;61342;51.442;7.370;2023-05-19T05:54:34;101007.63;;;11.30;82.25
71239;BME280;61342;51.442;7.370;2023-05-19T05:55:37;101024.16;;;11.41;82.09
71239;BME280;61342;51.442;7.370;2023-05-19T05:56:43;101011.31;;;11.36;82.08
71239;BME280;61342;51.442;7.370;2023-05-19T05:57:51;101006.34;;;11.37;82.07
71239;BME280;61342;51.442;7.370;2023-05-19T05:58:52;101008.47;;;11.42;81.83
71239;BME280;61342;51.442;7.370;2023-05-19T05:59:53;101006.09;;;11.40;82.02
71239;BME280;61342;51.442;7.370;2023-05-19T06:00:56;101006.38;;;11.48;81.63
71239;BME280;61342;51.442;7.370;2023-05-19T06:02:01;101009.56;;;11.50;81.64
71239;BME280;61342;51.442;7.370;2023-05-19T06:03:02;100993.06;;;11.50;81.34
71239;BME280;61342;51.442;7.370;2023-05-19T06:04:06;100995.47;;;11.57;81.10
71239;BME280;61342;51.442;7.370;2023-05-19T06:05:07;100998.63;;;11.64;81.16
71239;BME280;61342;51.442;7.370;2023-05-19T06:06:12;101017.78;;;11.73;80.49
71239;BME280;61342;51.442;7.370;2023-05-19T06:07:15;101003.09;;;11.76;80.76
71239;BME280;61342;51.442;7.370;2023-05-19T06:08:16;101002.84;;;11.85;80.35
71239;BME280;61342;51.442;7.370;2023-05-19T06:09:17;100998.44;;;11.90;80.25
71239;BME280;61342;51.442;7.370;2023-05-19T06:10:18;101004.19;;;11.95;80.01
71239;BME280;61342;51.442;7.370;2023-05-19T06:11:18;101012.84;;;12.11;79.63
71239;BME280;61342;51.442;7.370;2023-05-19T06:12:19;101011.81;;;12.14;79.50
71239;BME280;61342;51.442;7.370;2023-05-19T06:13:21;101003.19;;;12.20;79.17